createdAt,value
2022-12-19T00:01:32.176Z,47.47
2022-12-19T00:04:01.148Z,47.70
2022-12-19T00:06:28.860Z,52.78
2022-12-19T00:08:58.746Z,45.03
2022-12-19T00:11:25.956Z,43.53
2022-12-19T00:13:52.742Z,45.05
2022-12-19T00:16:21.916Z,44.97
2022-12-19T00:18:49.844Z,44.97
2022-12-19T00:21:19.004Z,49.33
2022-12-19T00:23:46.427Z,43.53
2022-12-19T00:26:22.113Z,40.90
2022-12-19T00:29:00.038Z,49.23
2022-12-19T00:31:30.172Z,45.58
2022-12-19T00:33:57.870Z,40.63
2022-12-19T00:36:27.184Z,49.97
2022-12-19T00:38:55.139Z,51.28
2022-12-19T00:41:25.486Z,44.67
2022-12-19T00:43:53.882Z,44.25
2022-12-19T00:46:20.727Z,44.58
2022-12-19T00:48:47.359Z,51.95
2022-12-19T00:51:23.131Z,48.78
2022-12-19T00:53:50.954Z,55.77
2022-12-19T00:56:24.287Z,52.17
2022-12-19T00:58:51.078Z,46.75
2022-12-19T01:01:21.232Z,51.67
2022-12-19T01:04:26.157Z,47.40
2022-12-19T01:06:35.179Z,45.87
2022-12-19T01:09:02.255Z,55.20
2022-12-19T01:11:47.301Z,60.40
2022-12-19T01:14:20.788Z,60.60
2022-12-19T01:16:49.634Z,58.00
2022-12-19T01:19:16.247Z,63.93
2022-12-19T01:21:42.762Z,62.85
2022-12-19T01:24:11.947Z,64.43
2022-12-19T01:26:39.334Z,67.88
2022-12-19T01:29:06.661Z,73.97
2022-12-19T01:31:33.582Z,63.10
2022-12-19T01:34:02.554Z,80.35
2022-12-19T01:36:29.642Z,70.65
2022-12-19T01:38:57.694Z,85.43
2022-12-19T01:41:26.602Z,69.65
2022-12-19T01:44:01.846Z,72.27
2022-12-19T01:46:41.500Z,68.45
2022-12-19T01:49:15.838Z,90.43
2022-12-19T01:51:46.975Z,78.65
2022-12-19T01:54:26.950Z,72.07
2022-12-19T01:57:01.375Z,78.43
2022-12-19T01:59:41.388Z,86.38
2022-12-19T02:02:13.481Z,82.63
2022-12-19T02:04:41.793Z,82.35
2022-12-19T02:07:15.844Z,85.80
2022-12-19T02:09:45.619Z,76.30
2022-12-19T02:12:13.282Z,80.13
2022-12-19T02:14:40.676Z,80.60
2022-12-19T02:17:45.257Z,83.53
2022-12-19T02:20:30.416Z,81.57
2022-12-19T02:23:24.741Z,86.00
2022-12-19T02:26:00.385Z,96.93
2022-12-19T02:28:43.031Z,80.50
2022-12-19T02:31:16.741Z,80.25
2022-12-19T02:34:12.354Z,93.63
2022-12-19T02:37:04.073Z,107.47
2022-12-19T02:39:42.747Z,90.05
2022-12-19T02:42:13.760Z,110.88
2022-12-19T02:44:47.282Z,108.88
2022-12-19T02:47:16.413Z,96.75
2022-12-19T02:49:43.276Z,105.07
2022-12-19T02:52:11.119Z,111.75
2022-12-19T02:54:39.055Z,89.25
2022-12-19T02:57:51.189Z,93.82
2022-12-19T03:00:21.815Z,104.47
2022-12-19T03:03:29.436Z,93.57
2022-12-19T03:06:16.977Z,94.25
2022-12-19T03:08:52.298Z,99.07
2022-12-19T03:11:21.946Z,98.30
2022-12-19T03:13:56.285Z,108.78
2022-12-19T03:16:24.728Z,105.83
2022-12-19T03:18:51.877Z,91.95
2022-12-19T03:21:39.364Z,110.28
2022-12-19T03:24:08.116Z,100.45
2022-12-19T03:26:41.380Z,94.22
2022-12-19T03:29:35.618Z,92.00
2022-12-19T03:32:05.564Z,117.07
2022-12-19T03:34:38.189Z,104.40
2022-12-19T03:37:07.682Z,101.65
2022-12-19T03:39:35.308Z,98.88
2022-12-19T03:42:23.503Z,98.60
2022-12-19T03:44:51.369Z,96.03
2022-12-19T03:47:22.796Z,101.28
2022-12-19T03:49:50.076Z,66.45
2022-12-19T03:52:59.552Z,101.95
2022-12-19T03:55:41.448Z,76.63
2022-12-19T03:58:12.511Z,93.93
2022-12-19T04:00:44.029Z,96.82
2022-12-19T04:03:11.632Z,102.95
2022-12-19T04:05:40.290Z,105.43
2022-12-19T04:08:08.938Z,104.57
2022-12-19T04:10:41.601Z,95.80
2022-12-19T04:13:16.205Z,102.03
2022-12-19T04:15:57.836Z,105.15
2022-12-19T04:18:24.543Z,107.05
2022-12-19T04:20:59.173Z,91.47
2022-12-19T04:23:37.290Z,108.72
2022-12-19T04:26:05.487Z,97.93
2022-12-19T04:28:46.888Z,113.35
2022-12-19T04:31:15.264Z,104.00
2022-12-19T04:33:42.026Z,104.10
2022-12-19T04:36:10.171Z,106.88
2022-12-19T04:38:37.102Z,111.20
2022-12-19T04:41:03.633Z,106.70
2022-12-19T04:43:30.126Z,98.45
2022-12-19T04:45:57.823Z,97.90
2022-12-19T04:48:25.456Z,96.18
2022-12-19T04:50:52.172Z,88.97
2022-12-19T04:53:18.912Z,103.13
2022-12-19T04:55:45.677Z,94.03
2022-12-19T04:58:14.518Z,95.10
2022-12-19T05:00:44.142Z,97.68
2022-12-19T05:03:10.752Z,96.90
2022-12-19T05:05:37.295Z,88.82
2022-12-19T05:08:03.832Z,96.85
2022-12-19T05:10:30.317Z,96.47
2022-12-19T05:12:56.774Z,100.68
2022-12-19T05:15:23.477Z,92.25
2022-12-19T05:17:50.006Z,86.63
2022-12-19T05:20:16.610Z,85.10
2022-12-19T05:22:43.127Z,83.33
2022-12-19T05:25:09.707Z,81.07
2022-12-19T05:27:36.196Z,81.72
2022-12-19T05:30:02.782Z,83.47
2022-12-19T05:32:33.726Z,85.72
2022-12-19T05:35:00.231Z,89.20
2022-12-19T05:37:26.749Z,86.32
2022-12-19T05:39:53.249Z,88.00
2022-12-19T05:42:19.764Z,79.88
2022-12-19T05:44:46.244Z,91.43
2022-12-19T05:47:12.927Z,82.97
2022-12-19T05:49:39.399Z,92.63
2022-12-19T05:52:05.912Z,85.68
2022-12-19T05:54:32.656Z,87.13
2022-12-19T05:56:59.288Z,84.90
2022-12-19T05:59:26.254Z,85.67
2022-12-19T06:01:54.105Z,85.28
2022-12-19T06:04:20.697Z,81.50
2022-12-19T06:06:47.229Z,78.10
2022-12-19T06:09:13.720Z,78.32
2022-12-19T06:11:40.140Z,84.23
2022-12-19T06:14:06.619Z,74.22
2022-12-19T06:16:33.222Z,82.65
2022-12-19T06:18:59.734Z,79.63
2022-12-19T06:21:26.269Z,85.75
2022-12-19T06:23:52.801Z,88.53
2022-12-19T06:26:20.684Z,76.07
2022-12-19T06:28:52.063Z,78.93
2022-12-19T06:31:20.334Z,77.75
2022-12-19T06:33:47.006Z,71.32
2022-12-19T06:36:20.908Z,74.50
2022-12-19T06:38:48.552Z,80.43
2022-12-19T06:41:34.537Z,81.05
2022-12-19T06:44:02.015Z,82.25
2022-12-19T06:46:29.183Z,81.13
2022-12-19T06:48:55.701Z,83.50
2022-12-19T06:51:23.065Z,82.38
2022-12-19T06:53:50.040Z,78.88
2022-12-19T06:56:17.548Z,82.97
2022-12-19T06:58:44.639Z,74.05
2022-12-19T07:01:32.204Z,67.13
2022-12-19T07:03:59.597Z,72.68
2022-12-19T07:06:26.175Z,51.20
2022-12-19T07:08:53.282Z,70.53
2022-12-19T07:11:19.794Z,60.95
2022-12-19T07:13:46.212Z,76.73
2022-12-19T07:16:12.733Z,73.40
2022-12-19T07:18:40.489Z,68.03
2022-12-19T07:21:08.406Z,70.05
2022-12-19T07:23:35.447Z,71.38
2022-12-19T07:26:02.063Z,63.57
2022-12-19T07:28:28.832Z,67.65
2022-12-19T07:30:55.449Z,67.53
2022-12-19T07:33:22.311Z,57.83
2022-12-19T07:35:49.138Z,60.63
2022-12-19T07:38:15.885Z,63.43
2022-12-19T07:40:42.355Z,55.35
2022-12-19T07:43:10.235Z,63.13
2022-12-19T07:45:38.375Z,58.10
2022-12-19T07:48:06.606Z,61.50
2022-12-19T07:50:33.473Z,60.17
2022-12-19T07:53:00.526Z,57.97
2022-12-19T07:55:27.248Z,53.42
2022-12-19T07:57:55.188Z,56.58
2022-12-19T08:00:21.956Z,52.97
2022-12-19T08:02:48.516Z,54.93
2022-12-19T08:05:15.198Z,54.70
2022-12-19T08:07:41.776Z,54.80
2022-12-19T08:10:09.075Z,55.10
2022-12-19T08:12:35.713Z,55.50
2022-12-19T08:15:02.166Z,55.17
2022-12-19T08:17:28.731Z,54.53
2022-12-19T08:19:55.269Z,52.33
2022-12-19T08:22:22.861Z,60.13
2022-12-19T08:24:49.477Z,61.30
2022-12-19T08:27:17.230Z,58.60
2022-12-19T08:29:44.016Z,54.35
2022-12-19T08:32:13.224Z,54.60
2022-12-19T08:34:42.229Z,56.42
2022-12-19T08:37:09.445Z,52.78
2022-12-19T08:39:35.938Z,56.93
2022-12-19T08:42:02.563Z,53.13
2022-12-19T08:44:29.207Z,52.35
2022-12-19T08:46:55.686Z,54.97
2022-12-19T08:49:22.198Z,54.95
2022-12-19T08:51:48.681Z,56.27
2022-12-19T08:54:15.364Z,57.42
2022-12-19T08:56:46.184Z,50.15
2022-12-19T08:59:14.870Z,53.65
2022-12-19T09:01:46.389Z,52.67
2022-12-19T09:05:57.732Z,52.40
2022-12-19T09:06:59.485Z,50.80
2022-12-19T09:09:26.073Z,45.97
2022-12-19T09:11:52.577Z,47.58
2022-12-19T09:14:21.511Z,46.55
2022-12-19T09:16:48.705Z,54.50
2022-12-19T09:19:16.476Z,46.00
2022-12-19T09:21:43.307Z,41.15
2022-12-19T09:24:11.003Z,41.72
2022-12-19T09:26:42.129Z,41.92
2022-12-19T09:29:20.343Z,38.57
2022-12-19T09:31:51.579Z,37.45
2022-12-19T09:34:22.820Z,37.72
2022-12-19T09:36:50.964Z,35.20
2022-12-19T09:39:18.184Z,31.67
2022-12-19T09:42:14.911Z,33.73
2022-12-19T09:45:04.224Z,33.63
2022-12-19T09:47:33.119Z,36.95
2022-12-19T09:50:02.011Z,34.90
2022-12-19T09:52:42.418Z,35.10
2022-12-19T09:55:35.245Z,36.53
2022-12-19T09:58:18.465Z,35.00
2022-12-19T10:01:00.057Z,35.58
2022-12-19T10:03:29.955Z,32.17
2022-12-19T10:07:18.325Z,34.03
2022-12-19T10:10:29.179Z,30.03
2022-12-19T10:12:39.852Z,31.08
2022-12-19T10:14:59.268Z,29.92
2022-12-19T10:17:50.283Z,30.63
2022-12-19T10:20:36.710Z,31.02
2022-12-19T10:23:35.662Z,29.77
2022-12-19T10:26:23.393Z,29.13
2022-12-19T10:29:22.847Z,29.88
2022-12-19T10:32:00.304Z,30.85
2022-12-19T10:34:38.565Z,28.52
2022-12-19T10:37:47.301Z,30.37
2022-12-19T10:40:27.907Z,28.05
2022-12-19T10:43:34.699Z,28.05
2022-12-19T10:46:13.684Z,28.42
2022-12-19T10:48:40.343Z,32.08
2022-12-19T10:51:13.859Z,27.27
2022-12-19T10:53:40.350Z,24.73
2022-12-19T10:56:18.835Z,29.38
2022-12-19T10:58:45.743Z,27.33
2022-12-19T11:01:26.602Z,27.48
2022-12-19T11:04:15.538Z,35.23
2022-12-19T11:06:51.741Z,31.88
2022-12-19T11:09:18.491Z,32.47
2022-12-19T11:13:20.108Z,29.55
2022-12-19T11:19:13.317Z,29.85
2022-12-19T11:29:14.855Z,30.20
2022-12-19T11:29:17.342Z,29.42
2022-12-19T11:29:36.497Z,28.52
2022-12-19T11:29:42.535Z,25.55
2022-12-19T11:30:38.645Z,28.38
2022-12-19T11:34:25.187Z,28.00
2022-12-19T11:37:03.819Z,27.35
2022-12-19T11:39:36.874Z,26.45
2022-12-19T11:42:23.354Z,24.00
2022-12-19T11:45:07.517Z,26.83
2022-12-19T11:47:42.208Z,23.80
2022-12-19T11:50:18.125Z,25.67
2022-12-19T11:53:16.560Z,19.67
2022-12-19T11:56:00.978Z,22.52
2022-12-19T11:58:29.494Z,21.77
2022-12-19T12:01:17.797Z,21.58
2022-12-19T12:04:04.828Z,22.45
2022-12-19T12:06:42.297Z,22.65
2022-12-19T12:12:27.069Z,22.73
2022-12-19T12:22:10.279Z,21.70
2022-12-19T12:26:37.403Z,21.70
2022-12-19T12:28:51.891Z,20.33
2022-12-19T12:31:05.045Z,19.92
2022-12-19T12:31:16.209Z,22.25
2022-12-19T12:31:42.783Z,21.30
2022-12-19T12:35:56.946Z,19.90
2022-12-19T12:36:00.035Z,18.73
2022-12-19T12:40:36.604Z,19.27
2022-12-19T12:43:12.295Z,20.93
2022-12-19T12:45:40.778Z,19.25
2022-12-19T12:48:31.397Z,18.85
2022-12-19T12:51:00.446Z,17.48
2022-12-19T12:53:33.375Z,17.20
2022-12-19T12:56:03.179Z,15.63
2022-12-19T12:58:54.144Z,16.08
2022-12-19T13:01:30.302Z,17.58
2022-12-19T13:04:02.753Z,16.40
2022-12-19T13:06:40.622Z,18.15
2022-12-19T13:09:10.037Z,15.40
2022-12-19T13:12:04.639Z,12.52
2022-12-19T13:14:33.867Z,15.13
2022-12-19T13:17:02.381Z,14.43
2022-12-19T13:19:34.232Z,15.30
2022-12-19T13:22:17.539Z,11.73
2022-12-19T13:24:55.973Z,10.45
2022-12-19T13:27:22.608Z,10.65
2022-12-19T13:30:01.140Z,10.85
2022-12-19T13:32:32.639Z,12.48
2022-12-19T13:35:32.635Z,11.57
2022-12-19T13:39:48.863Z,12.73
2022-12-19T13:40:43.835Z,10.15
2022-12-19T13:43:38.230Z,10.73
2022-12-19T13:46:23.507Z,13.45
2022-12-19T13:48:53.877Z,11.33
2022-12-19T13:51:20.472Z,11.52
2022-12-19T13:53:59.062Z,12.80
2022-12-19T13:56:30.328Z,11.10
2022-12-19T13:59:00.584Z,12.40
2022-12-19T14:01:29.602Z,12.30
2022-12-19T14:03:59.056Z,11.18
2022-12-19T14:06:47.082Z,10.70
2022-12-19T14:11:28.828Z,12.43
2022-12-19T14:13:58.818Z,12.20
2022-12-19T14:15:34.870Z,10.87
2022-12-19T14:18:41.913Z,10.27
2022-12-19T14:22:04.468Z,11.38
2022-12-19T14:23:43.559Z,15.23
2022-12-19T14:28:23.323Z,10.88
2022-12-19T14:29:45.390Z,13.07
2022-12-19T14:33:40.975Z,12.77
2022-12-19T14:36:06.105Z,14.13
2022-12-19T14:39:19.526Z,12.85
2022-12-19T14:41:07.371Z,14.88
2022-12-19T14:51:25.657Z,16.17
2022-12-19T14:52:35.063Z,14.03
2022-12-19T14:54:11.820Z,13.77
2022-12-19T14:54:23.527Z,13.38
2022-12-19T14:56:12.224Z,13.27
2022-12-19T14:58:54.601Z,16.90
2022-12-19T15:01:09.198Z,14.88
2022-12-19T15:04:47.329Z,16.48
2022-12-19T15:07:09.010Z,15.57
2022-12-19T15:11:04.922Z,16.15
2022-12-19T15:14:03.995Z,16.33
2022-12-19T15:15:26.025Z,15.88
2022-12-19T15:17:55.326Z,17.20
2022-12-19T15:20:21.989Z,18.33
2022-12-19T15:22:48.507Z,22.42
2022-12-19T15:25:52.791Z,18.67
2022-12-19T15:28:13.362Z,20.58
2022-12-19T15:30:41.147Z,17.15
2022-12-19T15:33:15.670Z,19.25
2022-12-19T15:35:43.025Z,17.33
2022-12-19T15:38:10.715Z,28.17
2022-12-19T15:40:39.556Z,19.75
2022-12-19T15:43:06.638Z,20.65
2022-12-19T15:45:33.533Z,19.77
2022-12-19T15:48:00.295Z,19.42
2022-12-19T15:50:29.613Z,20.47
2022-12-19T15:52:58.991Z,19.67
2022-12-19T15:55:28.894Z,18.63
2022-12-19T15:58:05.249Z,19.48
2022-12-19T16:00:36.691Z,19.80
2022-12-19T16:05:49.800Z,18.38
2022-12-19T16:08:21.562Z,19.25
2022-12-19T16:11:01.493Z,18.65
2022-12-19T16:13:35.047Z,17.70
2022-12-19T16:16:06.520Z,18.77
2022-12-19T16:18:39.400Z,18.10
2022-12-19T16:21:05.963Z,18.83
2022-12-19T16:23:32.465Z,20.05
2022-12-19T16:25:59.934Z,19.27
2022-12-19T16:28:29.667Z,19.60
2022-12-19T16:30:58.069Z,19.50
2022-12-19T16:33:28.624Z,20.85
2022-12-19T16:36:04.150Z,18.27
2022-12-19T16:38:31.550Z,19.08
2022-12-19T16:40:58.046Z,18.00
2022-12-19T16:43:36.283Z,17.85
2022-12-19T16:46:06.028Z,19.45
2022-12-19T16:48:35.479Z,18.15
2022-12-19T16:51:02.214Z,18.55
2022-12-19T16:53:29.696Z,22.10
2022-12-19T16:55:57.073Z,17.35
2022-12-19T16:58:28.304Z,20.45
2022-12-19T17:00:55.702Z,18.45
2022-12-19T17:03:37.563Z,16.73
2022-12-19T17:06:04.641Z,19.10
2022-12-19T17:08:32.550Z,18.55
2022-12-19T17:10:59.203Z,17.30
2022-12-19T17:13:25.983Z,19.58
2022-12-19T17:15:56.785Z,19.13
2022-12-19T17:18:35.673Z,15.90
2022-12-19T17:21:02.835Z,20.90
2022-12-19T17:23:32.395Z,18.65
2022-12-19T17:26:00.490Z,16.50
2022-12-19T17:28:28.442Z,15.68
2022-12-19T17:30:57.652Z,15.30
2022-12-19T17:33:31.851Z,14.50
2022-12-19T17:36:01.207Z,16.80
2022-12-19T17:38:27.693Z,14.32
2022-12-19T17:40:54.602Z,15.35
2022-12-19T17:43:21.086Z,15.33
2022-12-19T17:45:47.873Z,12.52
2022-12-19T17:48:31.583Z,16.13
2022-12-19T17:50:59.129Z,15.02
2022-12-19T17:53:26.463Z,13.18
2022-12-19T17:55:52.975Z,13.17
2022-12-19T17:58:19.523Z,13.40
2022-12-19T18:00:47.420Z,11.23
2022-12-19T18:03:24.013Z,12.52
2022-12-19T18:05:53.252Z,14.88
2022-12-19T18:08:29.533Z,15.77
2022-12-19T18:10:58.641Z,13.75
2022-12-19T18:13:27.122Z,14.48
2022-12-19T18:15:57.351Z,12.25
2022-12-19T18:18:29.034Z,12.77
2022-12-19T18:20:55.761Z,13.03
2022-12-19T18:23:23.580Z,13.70
2022-12-19T18:25:53.626Z,16.63
2022-12-19T18:28:24.373Z,13.15
2022-12-19T18:30:52.398Z,14.43
2022-12-19T18:33:23.526Z,15.73
2022-12-19T18:35:50.943Z,18.08
2022-12-19T18:38:20.984Z,10.95
2022-12-19T18:40:48.753Z,11.10
2022-12-19T18:43:16.522Z,10.15
2022-12-19T18:45:47.413Z,13.80
2022-12-19T18:48:20.474Z,14.07
2022-12-19T18:50:46.983Z,13.80
2022-12-19T18:53:15.914Z,11.43
2022-12-19T18:55:42.510Z,14.00
2022-12-19T18:58:08.906Z,13.97
2022-12-19T19:00:38.380Z,9.50
2022-12-19T19:03:10.774Z,10.25
2022-12-19T19:05:39.178Z,12.30
2022-12-19T19:08:15.118Z,12.23
2022-12-19T19:10:41.789Z,12.93
2022-12-19T19:13:11.251Z,10.10
2022-12-19T19:15:51.442Z,12.63
2022-12-19T19:18:30.018Z,11.50
2022-12-19T19:21:01.045Z,10.45
2022-12-19T19:23:32.929Z,13.37
2022-12-19T19:25:59.665Z,11.50
2022-12-19T19:28:26.199Z,12.15
2022-12-19T19:30:52.907Z,12.48
2022-12-19T19:33:23.511Z,12.98
2022-12-19T19:35:56.142Z,12.33
2022-12-19T19:38:23.487Z,11.75
2022-12-19T19:40:50.288Z,12.68
2022-12-19T19:43:16.843Z,12.50
2022-12-19T19:45:43.835Z,12.98
2022-12-19T19:48:10.723Z,10.37
2022-12-19T19:50:37.391Z,12.15
2022-12-19T19:53:05.069Z,11.10
2022-12-19T19:55:31.678Z,11.52
2022-12-19T19:57:58.221Z,9.85
2022-12-19T20:00:27.170Z,11.23
2022-12-19T20:02:53.928Z,9.63
2022-12-19T20:05:20.594Z,10.88
2022-12-19T20:07:47.072Z,9.25
2022-12-19T20:10:13.625Z,9.75
2022-12-19T20:12:40.132Z,10.80
2022-12-19T20:15:07.299Z,10.77
2022-12-19T20:17:34.091Z,10.43
2022-12-19T20:20:00.605Z,10.55
2022-12-19T20:22:28.806Z,8.43
2022-12-19T20:24:55.405Z,9.67
2022-12-19T20:27:21.868Z,8.48
2022-12-19T20:29:48.373Z,8.15
2022-12-19T20:32:15.043Z,6.43
2022-12-19T20:34:41.549Z,8.80
2022-12-19T20:37:08.114Z,7.57
2022-12-19T20:39:34.770Z,8.65
2022-12-19T20:42:01.517Z,10.95
2022-12-19T20:44:28.127Z,9.60
2022-12-19T20:46:54.789Z,8.68
2022-12-19T20:49:23.020Z,8.23
2022-12-19T20:51:49.591Z,8.02
2022-12-19T20:54:16.469Z,6.30
2022-12-19T20:56:43.065Z,7.38
2022-12-19T20:59:10.259Z,8.82
2022-12-19T21:01:37.801Z,6.47
2022-12-19T21:04:05.116Z,7.00
2022-12-19T21:06:32.059Z,7.90
2022-12-19T21:08:59.825Z,6.85
2022-12-19T21:11:26.680Z,6.82
2022-12-19T21:13:54.753Z,6.97
2022-12-19T21:16:22.479Z,8.32
2022-12-19T21:18:51.022Z,7.18
2022-12-19T21:21:21.131Z,9.15
2022-12-19T21:23:48.560Z,6.60
2022-12-19T21:26:15.192Z,6.17
2022-12-19T21:28:41.831Z,8.98
2022-12-19T21:31:20.778Z,10.32
2022-12-19T21:33:48.366Z,5.93
2022-12-19T21:36:20.525Z,6.53
2022-12-19T21:38:49.268Z,10.63
2022-12-19T21:41:18.951Z,7.18
2022-12-19T21:43:47.642Z,7.25
2022-12-19T21:46:15.912Z,7.82
2022-12-19T21:48:45.434Z,7.50
2022-12-19T21:51:12.922Z,7.83
2022-12-19T21:53:40.225Z,7.47
2022-12-19T21:56:23.350Z,7.15
2022-12-19T21:58:54.297Z,9.32
2022-12-19T22:01:21.495Z,7.63
2022-12-19T22:03:48.303Z,7.80
2022-12-19T22:06:25.525Z,6.47
2022-12-19T22:08:54.138Z,8.07
2022-12-19T22:11:21.592Z,7.93
2022-12-19T22:13:48.808Z,8.85
2022-12-19T22:16:16.081Z,6.67
2022-12-19T22:18:43.442Z,7.97
2022-12-19T22:21:15.086Z,6.70
2022-12-19T22:23:42.319Z,7.13
2022-12-19T22:26:21.083Z,8.50
2022-12-19T22:28:52.255Z,8.63
2022-12-19T22:31:18.789Z,7.28
2022-12-19T22:33:46.165Z,7.78
2022-12-19T22:36:15.548Z,7.40
2022-12-19T22:38:45.997Z,5.93
2022-12-19T22:41:13.065Z,7.57
2022-12-19T22:43:40.217Z,7.15
2022-12-19T22:46:14.693Z,9.82
2022-12-19T22:48:43.001Z,7.63
2022-12-19T22:51:10.228Z,5.53
2022-12-19T22:53:38.356Z,7.57
2022-12-19T22:56:13.101Z,6.32
2022-12-19T22:58:42.066Z,8.30
2022-12-19T23:01:18.668Z,7.38
2022-12-19T23:03:46.931Z,7.60
2022-12-19T23:06:14.374Z,7.43
2022-12-19T23:08:41.276Z,5.22
2022-12-19T23:11:11.305Z,7.50
2022-12-19T23:13:39.233Z,5.80
2022-12-19T23:16:05.807Z,7.07
2022-12-19T23:18:32.329Z,7.27
2022-12-19T23:21:09.242Z,5.82
2022-12-19T23:23:42.472Z,8.10
2022-12-19T23:26:15.593Z,4.80
2022-12-19T23:28:44.903Z,7.65
2022-12-19T23:31:13.338Z,6.27
2022-12-19T23:33:39.833Z,10.60
2022-12-19T23:36:06.721Z,6.40
2022-12-19T23:38:33.293Z,5.38
2022-12-19T23:41:06.205Z,7.25
2022-12-19T23:43:34.475Z,9.60
2022-12-19T23:46:09.622Z,5.40
2022-12-19T23:48:36.444Z,6.88
2022-12-19T23:51:05.847Z,4.53
2022-12-19T23:53:33.030Z,7.30
2022-12-19T23:56:00.896Z,7.97
2022-12-19T23:58:27.413Z,19.55
